sensor_id;sensor_type;location;lat;lon;timestamp;temperature;humidity
31991;DHT22;18508;49.386;8.370;2023-04-03T00:01:19;4.30;99.90
31991;DHT22;18508;49.386;8.370;2023-04-03T00:03:48;4.30;99.90
31991;DHT22;18508;49.386;8.370;2023-04-03T00:06:20;4.20;99.90
31991;DHT22;18508;49.386;8.370;2023-04-03T00:08:48;4.20;99.90
31991;DHT22;18508;49.386;8.370;2023-04-03T00:11:17;4.10;99.90
31991;DHT22;18508;49.386;8.370;2023-04-03T00:13:45;4.10;99.90
31991;DHT22;18508;49.386;8.370;2023-04-03T00:16:13;4.00;99.90
31991;DHT22;18508;49.386;8.370;2023-04-03T00:18:42;4.00;1.00
31991;DHT22;18508;49.386;8.370;2023-04-03T00:21:12;4.00;99.90
31991;DHT22;18508;49.386;8.370;2023-04-03T00:23:42;3.90;99.90
31991;DHT22;18508;49.386;8.370;2023-04-03T00:26:10;3.90;99.90
31991;DHT22;18508;49.386;8.370;2023-04-03T00:28:38;4.20;1.00
31991;DHT22;18508;49.386;8.370;2023-04-03T00:31:06;3.80;1.00
31991;DHT22;18508;49.386;8.370;2023-04-03T00:33:35;3.70;1.00
31991;DHT22;18508;49.386;8.370;2023-04-03T00:36:07;3.70;1.00
31991;DHT22;18508;49.386;8.370;2023-04-03T00:38:35;3.70;1.00
31991;DHT22;18508;49.386;8.370;2023-04-03T00:41:06;3.70;1.00
31991;DHT22;18508;49.386;8.370;2023-04-03T00:43:36;3.70;1.00
31991;DHT22;18508;49.386;8.370;2023-04-03T00:46:04;3.70;1.00
31991;DHT22;18508;49.386;8.370;2023-04-03T00:48:35;3.70;1.00
31991;DHT22;18508;49.386;8.370;2023-04-03T00:51:06;3.70;1.00
31991;DHT22;18508;49.386;8.370;2023-04-03T00:53:38;3.70;1.00
31991;DHT22;18508;49.386;8.370;2023-04-03T00:56:11;3.70;1.00
31991;DHT22;18508;49.386;8.370;2023-04-03T00:58:43;3.60;1.00
31991;DHT22;18508;49.386;8.370;2023-04-03T01:01:14;3.60;1.00
31991;DHT22;18508;49.386;8.370;2023-04-03T01:03:43;3.60;1.00
31991;DHT22;18508;49.386;8.370;2023-04-03T01:06:13;3.60;1.00
31991;DHT22;18508;49.386;8.370;2023-04-03T01:08:44;3.60;1.00
31991;DHT22;18508;49.386;8.370;2023-04-03T01:11:14;3.60;1.00
31991;DHT22;18508;49.386;8.370;2023-04-03T01:13:43;3.50;1.00
31991;DHT22;18508;49.386;8.370;2023-04-03T01:16:11;3.50;99.90
31991;DHT22;18508;49.386;8.370;2023-04-03T01:18:40;3.50;1.00
31991;DHT22;18508;49.386;8.370;2023-04-03T01:21:42;3.50;1.00
31991;DHT22;18508;49.386;8.370;2023-04-03T01:24:27;3.50;1.00
31991;DHT22;18508;49.386;8.370;2023-04-03T01:27:01;3.50;1.00
31991;DHT22;18508;49.386;8.370;2023-04-03T01:29:30;3.40;1.00
31991;DHT22;18508;49.386;8.370;2023-04-03T01:32:01;3.40;1.00
31991;DHT22;18508;49.386;8.370;2023-04-03T01:34:30;3.40;1.00
31991;DHT22;18508;49.386;8.370;2023-04-03T01:36:58;3.40;1.00
31991;DHT22;18508;49.386;8.370;2023-04-03T01:39:26;3.30;1.00
31991;DHT22;18508;49.386;8.370;2023-04-03T01:41:54;3.30;1.00
31991;DHT22;18508;49.386;8.370;2023-04-03T01:44:22;3.30;1.00
31991;DHT22;18508;49.386;8.370;2023-04-03T01:46:50;3.20;42.40
31991;DHT22;18508;49.386;8.370;2023-04-03T01:49:20;3.30;1.00
31991;DHT22;18508;49.386;8.370;2023-04-03T01:51:48;3.30;1.00
31991;DHT22;18508;49.386;8.370;2023-04-03T01:54:16;3.30;1.00
31991;DHT22;18508;49.386;8.370;2023-04-03T01:56:44;3.30;1.00
31991;DHT22;18508;49.386;8.370;2023-04-03T01:59:12;3.40;2.90
31991;DHT22;18508;49.386;8.370;2023-04-03T02:01:41;3.30;55.20
31991;DHT22;18508;49.386;8.370;2023-04-03T02:04:10;3.40;99.90
31991;DHT22;18508;49.386;8.370;2023-04-03T02:06:40;3.10;99.90
31991;DHT22;18508;49.386;8.370;2023-04-03T02:09:08;3.10;99.90
31991;DHT22;18508;49.386;8.370;2023-04-03T02:11:39;3.10;99.90
31991;DHT22;18508;49.386;8.370;2023-04-03T02:14:07;3.10;99.90
31991;DHT22;18508;49.386;8.370;2023-04-03T02:16:35;3.10;99.90
31991;DHT22;18508;49.386;8.370;2023-04-03T02:19:04;3.00;1.00
31991;DHT22;18508;49.386;8.370;2023-04-03T02:21:32;3.00;1.00
31991;DHT22;18508;49.386;8.370;2023-04-03T02:24:04;3.00;1.00
31991;DHT22;18508;49.386;8.370;2023-04-03T02:26:32;2.90;1.00
31991;DHT22;18508;49.386;8.370;2023-04-03T02:29:00;2.90;99.90
31991;DHT22;18508;49.386;8.370;2023-04-03T02:31:30;2.90;99.90
31991;DHT22;18508;49.386;8.370;2023-04-03T02:33:58;2.90;99.90
31991;DHT22;18508;49.386;8.370;2023-04-03T02:36:26;2.80;99.90
31991;DHT22;18508;49.386;8.370;2023-04-03T02:38:57;2.90;99.90
31991;DHT22;18508;49.386;8.370;2023-04-03T02:41:27;2.80;99.90
31991;DHT22;18508;49.386;8.370;2023-04-03T02:44:01;2.90;1.00
31991;DHT22;18508;49.386;8.370;2023-04-03T02:46:29;2.90;1.00
31991;DHT22;18508;49.386;8.370;2023-04-03T02:48:58;2.90;1.00
31991;DHT22;18508;49.386;8.370;2023-04-03T02:51:26;2.90;1.00
31991;DHT22;18508;49.386;8.370;2023-04-03T02:53:54;2.90;1.00
31991;DHT22;18508;49.386;8.370;2023-04-03T02:56:22;2.90;49.10
31991;DHT22;18508;49.386;8.370;2023-04-03T02:58:52;3.00;79.90
31991;DHT22;18508;49.386;8.370;2023-04-03T03:01:20;2.90;99.90
31991;DHT22;18508;49.386;8.370;2023-04-03T03:03:48;2.90;1.00
31991;DHT22;18508;49.386;8.370;2023-04-03T03:06:17;2.80;1.00
31991;DHT22;18508;49.386;8.370;2023-04-03T03:08:45;2.70;99.90
31991;DHT22;18508;49.386;8.370;2023-04-03T03:11:14;2.80;99.90
31991;DHT22;18508;49.386;8.370;2023-04-03T03:13:43;2.70;99.90
31991;DHT22;18508;49.386;8.370;2023-04-03T03:16:13;2.70;99.90
31991;DHT22;18508;49.386;8.370;2023-04-03T03:18:41;2.70;99.90
31991;DHT22;18508;49.386;8.370;2023-04-03T03:21:10;2.70;99.90
31991;DHT22;18508;49.386;8.370;2023-04-03T03:23:38;2.70;1.00
31991;DHT22;18508;49.386;8.370;2023-04-03T03:26:08;2.60;1.00
31991;DHT22;18508;49.386;8.370;2023-04-03T03:28:38;2.70;1.00
31991;DHT22;18508;49.386;8.370;2023-04-03T03:31:08;2.60;23.10
31991;DHT22;18508;49.386;8.370;2023-04-03T03:33:38;2.60;1.00
31991;DHT22;18508;49.386;8.370;2023-04-03T03:36:07;2.70;1.00
31991;DHT22;18508;49.386;8.370;2023-04-03T03:38:35;2.60;1.00
31991;DHT22;18508;49.386;8.370;2023-04-03T03:41:05;2.70;1.00
31991;DHT22;18508;49.386;8.370;2023-04-03T03:43:33;2.60;99.90
31991;DHT22;18508;49.386;8.370;2023-04-03T03:46:02;2.70;1.00
31991;DHT22;18508;49.386;8.370;2023-04-03T03:48:30;2.70;99.90
31991;DHT22;18508;49.386;8.370;2023-04-03T03:50:59;2.60;1.00
31991;DHT22;18508;49.386;8.370;2023-04-03T03:53:27;2.60;1.00
31991;DHT22;18508;49.386;8.370;2023-04-03T03:55:55;2.60;1.00
31991;DHT22;18508;49.386;8.370;2023-04-03T03:58:23;2.60;1.00
31991;DHT22;18508;49.386;8.370;2023-04-03T04:00:52;2.60;1.00
31991;DHT22;18508;49.386;8.370;2023-04-03T04:03:21;2.50;99.90
31991;DHT22;18508;49.386;8.370;2023-04-03T04:05:52;2.40;99.90
31991;DHT22;18508;49.386;8.370;2023-04-03T04:08:21;2.50;99.90
31991;DHT22;18508;49.386;8.370;2023-04-03T04:10:52;2.30;1.00
31991;DHT22;18508;49.386;8.370;2023-04-03T04:13:20;2.40;1.00
31991;DHT22;18508;49.386;8.370;2023-04-03T04:15:48;2.40;99.90
31991;DHT22;18508;49.386;8.370;2023-04-03T04:18:16;2.30;99.90
31991;DHT22;18508;49.386;8.370;2023-04-03T04:20:47;2.30;99.90
31991;DHT22;18508;49.386;8.370;2023-04-03T04:23:17;2.50;99.90
31991;DHT22;18508;49.386;8.370;2023-04-03T04:25:46;2.30;1.00
31991;DHT22;18508;49.386;8.370;2023-04-03T04:28:15;2.30;99.90
31991;DHT22;18508;49.386;8.370;2023-04-03T04:30:44;2.30;95.80
31991;DHT22;18508;49.386;8.370;2023-04-03T04:33:13;2.20;99.90
31991;DHT22;18508;49.386;8.370;2023-04-03T04:35:42;2.10;99.90
31991;DHT22;18508;49.386;8.370;2023-04-03T04:38:11;2.20;99.90
31991;DHT22;18508;49.386;8.370;2023-04-03T04:40:40;2.10;1.00
31991;DHT22;18508;49.386;8.370;2023-04-03T04:43:09;2.10;1.00
31991;DHT22;18508;49.386;8.370;2023-04-03T04:45:41;2.10;1.00
31991;DHT22;18508;49.386;8.370;2023-04-03T04:48:09;2.10;1.00
31991;DHT22;18508;49.386;8.370;2023-04-03T04:50:37;2.10;99.90
31991;DHT22;18508;49.386;8.370;2023-04-03T04:55:35;1.60;1.00
31991;DHT22;18508;49.386;8.370;2023-04-03T04:58:06;1.90;1.00
31991;DHT22;18508;49.386;8.370;2023-04-03T05:00:35;1.90;99.90
31991;DHT22;18508;49.386;8.370;2023-04-03T05:03:04;1.90;99.90
31991;DHT22;18508;49.386;8.370;2023-04-03T05:05:32;1.90;1.00
31991;DHT22;18508;49.386;8.370;2023-04-03T05:08:02;2.10;99.90
31991;DHT22;18508;49.386;8.370;2023-04-03T05:10:33;1.80;22.10
31991;DHT22;18508;49.386;8.370;2023-04-03T05:15:30;1.90;1.00
31991;DHT22;18508;49.386;8.370;2023-04-03T05:17:59;2.00;99.90
31991;DHT22;18508;49.386;8.370;2023-04-03T05:20:29;2.10;99.90
31991;DHT22;18508;49.386;8.370;2023-04-03T05:25:26;2.20;99.90
31991;DHT22;18508;49.386;8.370;2023-04-03T05:27:57;2.30;1.00
31991;DHT22;18508;49.386;8.370;2023-04-03T05:30:25;2.50;1.00
31991;DHT22;18508;49.386;8.370;2023-04-03T05:35:24;2.50;1.00
31991;DHT22;18508;49.386;8.370;2023-04-03T05:37:53;2.60;99.90
31991;DHT22;18508;49.386;8.370;2023-04-03T05:40:21;2.70;99.90
31991;DHT22;18508;49.386;8.370;2023-04-03T05:42:50;2.70;99.90
31991;DHT22;18508;49.386;8.370;2023-04-03T05:45:18;2.80;99.90
31991;DHT22;18508;49.386;8.370;2023-04-03T05:47:47;2.90;99.90
31991;DHT22;18508;49.386;8.370;2023-04-03T05:50:17;2.90;1.00
31991;DHT22;18508;49.386;8.370;2023-04-03T05:52:49;2.90;1.00
31991;DHT22;18508;49.386;8.370;2023-04-03T05:55:19;2.70;60.90
31991;DHT22;18508;49.386;8.370;2023-04-03T05:57:47;3.00;1.00
31991;DHT22;18508;49.386;8.370;2023-04-03T06:00:20;3.00;1.00
31991;DHT22;18508;49.386;8.370;2023-04-03T06:02:49;3.10;1.00
31991;DHT22;18508;49.386;8.370;2023-04-03T06:05:17;3.20;99.90
31991;DHT22;18508;49.386;8.370;2023-04-03T06:07:47;3.20;99.90
31991;DHT22;18508;49.386;8.370;2023-04-03T06:10:16;3.30;2.20
31991;DHT22;18508;49.386;8.370;2023-04-03T06:12:46;3.40;1.00
31991;DHT22;18508;49.386;8.370;2023-04-03T06:15:15;3.50;99.90
31991;DHT22;18508;49.386;8.370;2023-04-03T06:17:44;3.60;99.90
31991;DHT22;18508;49.386;8.370;2023-04-03T06:20:12;3.80;1.00
31991;DHT22;18508;49.386;8.370;2023-04-03T06:22:42;3.70;99.90
31991;DHT22;18508;49.386;8.370;2023-04-03T06:25:14;3.80;1.00
31991;DHT22;18508;49.386;8.370;2023-04-03T06:27:45;3.90;1.00
31991;DHT22;18508;49.386;8.370;2023-04-03T06:30:15;4.00;27.00
31991;DHT22;18508;49.386;8.370;2023-04-03T06:32:44;4.00;98.60
31991;DHT22;18508;49.386;8.370;2023-04-03T06:35:13;4.00;99.90
31991;DHT22;18508;49.386;8.370;2023-04-03T06:37:41;4.10;99.90
31991;DHT22;18508;49.386;8.370;2023-04-03T06:40:18;4.20;99.90
31991;DHT22;18508;49.386;8.370;2023-04-03T06:42:47;4.30;99.90
31991;DHT22;18508;49.386;8.370;2023-04-03T06:45:16;4.40;1.00
31991;DHT22;18508;49.386;8.370;2023-04-03T06:47:47;4.50;1.00
31991;DHT22;18508;49.386;8.370;2023-04-03T06:50:15;4.60;99.90
31991;DHT22;18508;49.386;8.370;2023-04-03T06:52:43;4.60;14.00
31991;DHT22;18508;49.386;8.370;2023-04-03T06:55:13;4.70;1.00
31991;DHT22;18508;49.386;8.370;2023-04-03T06:57:42;4.80;1.00
31991;DHT22;18508;49.386;8.370;2023-04-03T07:00:12;4.80;1.00
31991;DHT22;18508;49.386;8.370;2023-04-03T07:02:41;4.80;1.00
31991;DHT22;18508;49.386;8.370;2023-04-03T07:05:10;4.90;1.00
31991;DHT22;18508;49.386;8.370;2023-04-03T07:07:39;5.00;1.00
31991;DHT22;18508;49.386;8.370;2023-04-03T07:10:09;5.10;99.90
31991;DHT22;18508;49.386;8.370;2023-04-03T07:12:43;5.10;1.00
31991;DHT22;18508;49.386;8.370;2023-04-03T07:15:11;5.10;1.00
31991;DHT22;18508;49.386;8.370;2023-04-03T07:17:41;5.20;1.00
31991;DHT22;18508;49.386;8.370;2023-04-03T07:20:09;5.20;1.00
31991;DHT22;18508;49.386;8.370;2023-04-03T07:22:38;5.30;1.00
31991;DHT22;18508;49.386;8.370;2023-04-03T07:25:07;5.40;1.00
31991;DHT22;18508;49.386;8.370;2023-04-03T07:27:36;5.50;1.00
31991;DHT22;18508;49.386;8.370;2023-04-03T07:30:07;5.60;99.90
31991;DHT22;18508;49.386;8.370;2023-04-03T07:32:36;5.60;99.90
31991;DHT22;18508;49.386;8.370;2023-04-03T07:35:06;5.70;5.70
31991;DHT22;18508;49.386;8.370;2023-04-03T07:37:34;5.70;57.20
31991;DHT22;18508;49.386;8.370;2023-04-03T07:40:05;5.80;1.00
31991;DHT22;18508;49.386;8.370;2023-04-03T07:42:35;5.80;1.00
31991;DHT22;18508;49.386;8.370;2023-04-03T07:45:06;5.80;1.00
31991;DHT22;18508;49.386;8.370;2023-04-03T07:47:35;5.90;1.00
31991;DHT22;18508;49.386;8.370;2023-04-03T07:50:04;6.00;99.90
31991;DHT22;18508;49.386;8.370;2023-04-03T07:52:32;6.00;99.90
31991;DHT22;18508;49.386;8.370;2023-04-03T07:55:01;6.10;99.90
31991;DHT22;18508;49.386;8.370;2023-04-03T07:57:30;6.20;99.90
31991;DHT22;18508;49.386;8.370;2023-04-03T07:59:59;6.40;99.90
31991;DHT22;18508;49.386;8.370;2023-04-03T08:02:28;6.50;1.00
31991;DHT22;18508;49.386;8.370;2023-04-03T08:05:00;6.60;1.00
31991;DHT22;18508;49.386;8.370;2023-04-03T08:07:29;6.80;1.00
31991;DHT22;18508;49.386;8.370;2023-04-03T08:09:57;6.70;1.00
31991;DHT22;18508;49.386;8.370;2023-04-03T08:12:26;6.80;1.00
31991;DHT22;18508;49.386;8.370;2023-04-03T08:14:55;6.80;1.00
31991;DHT22;18508;49.386;8.370;2023-04-03T08:17:25;6.80;1.00
31991;DHT22;18508;49.386;8.370;2023-04-03T08:19:54;6.90;1.00
31991;DHT22;18508;49.386;8.370;2023-04-03T08:22:23;7.00;99.90
31991;DHT22;18508;49.386;8.370;2023-04-03T08:24:51;7.10;99.90
31991;DHT22;18508;49.386;8.370;2023-04-03T08:27:25;7.10;99.90
31991;DHT22;18508;49.386;8.370;2023-04-03T08:29:54;7.20;99.90
31991;DHT22;18508;49.386;8.370;2023-04-03T08:32:24;7.20;99.90
31991;DHT22;18508;49.386;8.370;2023-04-03T08:34:54;7.30;91.30
31991;DHT22;18508;49.386;8.370;2023-04-03T08:37:23;7.40;89.60
31991;DHT22;18508;49.386;8.370;2023-04-03T08:39:52;7.40;35.70
31991;DHT22;18508;49.386;8.370;2023-04-03T08:42:35;7.40;21.90
31991;DHT22;18508;49.386;8.370;2023-04-03T08:45:13;7.50;27.20
31991;DHT22;18508;49.386;8.370;2023-04-03T08:47:45;7.60;10.70
31991;DHT22;18508;49.386;8.370;2023-04-03T08:50:18;7.50;1.00
31991;DHT22;18508;49.386;8.370;2023-04-03T08:52:48;7.60;1.00
31991;DHT22;18508;49.386;8.370;2023-04-03T08:55:22;7.70;1.00
31991;DHT22;18508;49.386;8.370;2023-04-03T08:58:00;7.80;1.00
31991;DHT22;18508;49.386;8.370;2023-04-03T09:00:36;8.10;99.90
31991;DHT22;18508;49.386;8.370;2023-04-03T09:03:12;7.80;1.00
31991;DHT22;18508;49.386;8.370;2023-04-03T09:05:46;7.80;1.00
31991;DHT22;18508;49.386;8.370;2023-04-03T09:08:25;7.90;1.00
31991;DHT22;18508;49.386;8.370;2023-04-03T09:11:06;7.90;1.00
31991;DHT22;18508;49.386;8.370;2023-04-03T09:13:43;8.00;1.00
31991;DHT22;18508;49.386;8.370;2023-04-03T09:16:23;8.00;1.00
31991;DHT22;18508;49.386;8.370;2023-04-03T09:18:57;8.00;1.00
31991;DHT22;18508;49.386;8.370;2023-04-03T09:21:36;8.10;1.00
31991;DHT22;18508;49.386;8.370;2023-04-03T09:24:06;8.20;1.00
31991;DHT22;18508;49.386;8.370;2023-04-03T09:26:42;8.30;1.00
31991;DHT22;18508;49.386;8.370;2023-04-03T09:29:16;8.30;1.00
31991;DHT22;18508;49.386;8.370;2023-04-03T09:31:49;8.30;1.00
31991;DHT22;18508;49.386;8.370;2023-04-03T09:34:24;8.40;1.00
31991;DHT22;18508;49.386;8.370;2023-04-03T09:36:55;8.40;1.00
31991;DHT22;18508;49.386;8.370;2023-04-03T09:39:25;8.50;1.00
31991;DHT22;18508;49.386;8.370;2023-04-03T09:41:58;8.60;1.00
31991;DHT22;18508;49.386;8.370;2023-04-03T09:44:28;8.50;1.00
31991;DHT22;18508;49.386;8.370;2023-04-03T09:46:57;8.50;1.00
31991;DHT22;18508;49.386;8.370;2023-04-03T09:49:27;8.50;1.00
31991;DHT22;18508;49.386;8.370;2023-04-03T09:51:57;8.80;1.00
31991;DHT22;18508;49.386;8.370;2023-04-03T09:54:34;8.80;1.00
31991;DHT22;18508;49.386;8.370;2023-04-03T09:57:08;9.10;1.00
31991;DHT22;18508;49.386;8.370;2023-04-03T09:59:46;9.20;1.00
31991;DHT22;18508;49.386;8.370;2023-04-03T10:02:35;9.10;1.00
31991;DHT22;18508;49.386;8.370;2023-04-03T10:05:23;9.00;1.00
31991;DHT22;18508;49.386;8.370;2023-04-03T10:08:07;8.80;1.00
31991;DHT22;18508;49.386;8.370;2023-04-03T10:10:36;8.70;1.00
31991;DHT22;18508;49.386;8.370;2023-04-03T10:13:07;8.70;1.00
31991;DHT22;18508;49.386;8.370;2023-04-03T10:15:50;8.50;1.00
31991;DHT22;18508;49.386;8.370;2023-04-03T10:18:29;8.70;1.00
31991;DHT22;18508;49.386;8.370;2023-04-03T10:21:03;8.90;1.00
31991;DHT22;18508;49.386;8.370;2023-04-03T10:23:45;9.10;1.00
31991;DHT22;18508;49.386;8.370;2023-04-03T10:26:26;9.10;1.00
31991;DHT22;18508;49.386;8.370;2023-04-03T10:29:04;9.20;1.00
31991;DHT22;18508;49.386;8.370;2023-04-03T10:31:39;9.20;1.00
31991;DHT22;18508;49.386;8.370;2023-04-03T10:34:18;9.40;1.00
31991;DHT22;18508;49.386;8.370;2023-04-03T10:36:53;9.60;1.00
31991;DHT22;18508;49.386;8.370;2023-04-03T10:39:30;9.50;1.00
31991;DHT22;18508;49.386;8.370;2023-04-03T10:42:05;9.40;1.00
31991;DHT22;18508;49.386;8.370;2023-04-03T10:44:54;9.40;1.00
31991;DHT22;18508;49.386;8.370;2023-04-03T10:47:28;9.50;1.00
31991;DHT22;18508;49.386;8.370;2023-04-03T10:50:15;9.80;1.00
31991;DHT22;18508;49.386;8.370;2023-04-03T10:52:57;9.80;1.00
31991;DHT22;18508;49.386;8.370;2023-04-03T10:55:36;10.00;1.00
31991;DHT22;18508;49.386;8.370;2023-04-03T10:58:07;10.00;1.00
31991;DHT22;18508;49.386;8.370;2023-04-03T11:00:46;10.00;1.00
31991;DHT22;18508;49.386;8.370;2023-04-03T11:03:26;10.20;1.00
31991;DHT22;18508;49.386;8.370;2023-04-03T11:05:57;10.40;1.00
31991;DHT22;18508;49.386;8.370;2023-04-03T11:08:30;10.70;1.00
31991;DHT22;18508;49.386;8.370;2023-04-03T11:11:05;11.00;1.00
31991;DHT22;18508;49.386;8.370;2023-04-03T11:13:37;10.60;1.00
31991;DHT22;18508;49.386;8.370;2023-04-03T11:16:16;10.70;1.00
31991;DHT22;18508;49.386;8.370;2023-04-03T11:18:51;10.90;1.00
31991;DHT22;18508;49.386;8.370;2023-04-03T11:21:22;10.80;1.00
31991;DHT22;18508;49.386;8.370;2023-04-03T11:23:53;11.10;1.00
31991;DHT22;18508;49.386;8.370;2023-04-03T11:26:29;11.00;1.00
31991;DHT22;18508;49.386;8.370;2023-04-03T11:29:04;11.00;1.00
31991;DHT22;18508;49.386;8.370;2023-04-03T11:32:03;10.90;1.00
31991;DHT22;18508;49.386;8.370;2023-04-03T11:34:37;10.40;1.00
31991;DHT22;18508;49.386;8.370;2023-04-03T11:37:15;10.20;1.00
31991;DHT22;18508;49.386;8.370;2023-04-03T11:39:51;10.00;1.00
31991;DHT22;18508;49.386;8.370;2023-04-03T11:42:34;9.90;1.00
31991;DHT22;18508;49.386;8.370;2023-04-03T11:45:17;9.90;1.00
31991;DHT22;18508;49.386;8.370;2023-04-03T11:47:55;10.10;1.00
31991;DHT22;18508;49.386;8.370;2023-04-03T11:50:41;10.10;1.00
31991;DHT22;18508;49.386;8.370;2023-04-03T11:53:30;10.20;1.00
31991;DHT22;18508;49.386;8.370;2023-04-03T11:56:04;10.20;1.00
31991;DHT22;18508;49.386;8.370;2023-04-03T11:58:34;10.10;1.00
31991;DHT22;18508;49.386;8.370;2023-04-03T12:01:44;10.00;1.00
31991;DHT22;18508;49.386;8.370;2023-04-03T12:04:13;9.90;1.00
31991;DHT22;18508;49.386;8.370;2023-04-03T12:10:17;10.20;1.00
31991;DHT22;18508;49.386;8.370;2023-04-03T12:12:59;10.40;1.00
31991;DHT22;18508;49.386;8.370;2023-04-03T12:15:56;10.40;1.00
31991;DHT22;18508;49.386;8.370;2023-04-03T12:18:55;10.50;1.00
31991;DHT22;18508;49.386;8.370;2023-04-03T12:22:05;10.80;1.00
31991;DHT22;18508;49.386;8.370;2023-04-03T12:24:36;10.80;1.00
31991;DHT22;18508;49.386;8.370;2023-04-03T12:27:17;10.80;1.00
31991;DHT22;18508;49.386;8.370;2023-04-03T12:29:51;10.60;1.00
31991;DHT22;18508;49.386;8.370;2023-04-03T12:32:32;10.50;1.00
31991;DHT22;18508;49.386;8.370;2023-04-03T12:35:05;10.50;1.00
31991;DHT22;18508;49.386;8.370;2023-04-03T12:37:56;10.50;1.00
31991;DHT22;18508;49.386;8.370;2023-04-03T12:40:33;10.40;1.00
31991;DHT22;18508;49.386;8.370;2023-04-03T12:43:15;10.60;1.00
31991;DHT22;18508;49.386;8.370;2023-04-03T12:45:48;10.50;1.00
31991;DHT22;18508;49.386;8.370;2023-04-03T12:48:20;10.50;1.00
31991;DHT22;18508;49.386;8.370;2023-04-03T12:50:52;10.10;1.00
31991;DHT22;18508;49.386;8.370;2023-04-03T12:53:24;10.30;1.00
31991;DHT22;18508;49.386;8.370;2023-04-03T12:56:23;10.30;1.00
31991;DHT22;18508;49.386;8.370;2023-04-03T12:58:53;10.30;1.00
31991;DHT22;18508;49.386;8.370;2023-04-03T13:01:24;10.30;1.00
31991;DHT22;18508;49.386;8.370;2023-04-03T13:03:57;10.30;1.00
31991;DHT22;18508;49.386;8.370;2023-04-03T13:06:30;10.10;1.00
31991;DHT22;18508;49.386;8.370;2023-04-03T13:09:01;10.20;1.00
31991;DHT22;18508;49.386;8.370;2023-04-03T13:11:42;9.90;1.00
31991;DHT22;18508;49.386;8.370;2023-04-03T13:14:16;9.80;1.00
31991;DHT22;18508;49.386;8.370;2023-04-03T13:16:53;10.20;1.00
31991;DHT22;18508;49.386;8.370;2023-04-03T13:19:24;10.80;1.00
31991;DHT22;18508;49.386;8.370;2023-04-03T13:21:58;11.30;1.00
31991;DHT22;18508;49.386;8.370;2023-04-03T13:24:28;11.80;1.00
31991;DHT22;18508;49.386;8.370;2023-04-03T13:26:59;12.00;1.00
31991;DHT22;18508;49.386;8.370;2023-04-03T13:29:30;11.60;1.00
31991;DHT22;18508;49.386;8.370;2023-04-03T13:32:00;11.60;1.00
31991;DHT22;18508;49.386;8.370;2023-04-03T13:34:36;11.80;1.00
31991;DHT22;18508;49.386;8.370;2023-04-03T13:37:06;11.40;1.00
31991;DHT22;18508;49.386;8.370;2023-04-03T13:39:36;11.40;1.00
31991;DHT22;18508;49.386;8.370;2023-04-03T13:42:17;11.10;1.00
31991;DHT22;18508;49.386;8.370;2023-04-03T13:45:05;11.40;1.00
31991;DHT22;18508;49.386;8.370;2023-04-03T13:47:39;11.00;1.00
31991;DHT22;18508;49.386;8.370;2023-04-03T13:50:15;10.60;1.00
31991;DHT22;18508;49.386;8.370;2023-04-03T13:52:48;10.50;1.00
31991;DHT22;18508;49.386;8.370;2023-04-03T13:55:22;10.90;1.00
31991;DHT22;18508;49.386;8.370;2023-04-03T13:57:57;11.10;1.00
31991;DHT22;18508;49.386;8.370;2023-04-03T14:00:32;11.70;1.00
31991;DHT22;18508;49.386;8.370;2023-04-03T14:03:03;12.30;1.00
31991;DHT22;18508;49.386;8.370;2023-04-03T14:05:41;13.00;1.00
31991;DHT22;18508;49.386;8.370;2023-04-03T14:08:14;13.00;1.00
31991;DHT22;18508;49.386;8.370;2023-04-03T14:10:54;13.00;1.00
31991;DHT22;18508;49.386;8.370;2023-04-03T14:13:29;13.50;1.00
31991;DHT22;18508;49.386;8.370;2023-04-03T14:15:57;12.50;1.00
31991;DHT22;18508;49.386;8.370;2023-04-03T14:18:41;11.80;1.00
31991;DHT22;18508;49.386;8.370;2023-04-03T14:21:11;11.30;1.00
31991;DHT22;18508;49.386;8.370;2023-04-03T14:23:39;11.00;1.00
31991;DHT22;18508;49.386;8.370;2023-04-03T14:26:12;11.90;1.00
31991;DHT22;18508;49.386;8.370;2023-04-03T14:28:42;12.90;1.00
31991;DHT22;18508;49.386;8.370;2023-04-03T14:31:11;13.30;1.00
31991;DHT22;18508;49.386;8.370;2023-04-03T14:33:43;14.50;1.00
31991;DHT22;18508;49.386;8.370;2023-04-03T14:36:13;14.30;1.00
31991;DHT22;18508;49.386;8.370;2023-04-03T14:38:45;13.20;1.00
31991;DHT22;18508;49.386;8.370;2023-04-03T14:41:15;12.60;1.00
31991;DHT22;18508;49.386;8.370;2023-04-03T14:43:47;12.70;1.00
31991;DHT22;18508;49.386;8.370;2023-04-03T14:46:17;13.20;1.00
31991;DHT22;18508;49.386;8.370;2023-04-03T14:48:46;13.70;1.00
31991;DHT22;18508;49.386;8.370;2023-04-03T14:51:16;13.80;1.00
31991;DHT22;18508;49.386;8.370;2023-04-03T14:53:44;14.30;1.00
31991;DHT22;18508;49.386;8.370;2023-04-03T14:56:14;14.90;1.00
31991;DHT22;18508;49.386;8.370;2023-04-03T14:58:45;15.10;1.00
31991;DHT22;18508;49.386;8.370;2023-04-03T15:01:17;15.00;1.00
31991;DHT22;18508;49.386;8.370;2023-04-03T15:03:45;15.30;1.00
31991;DHT22;18508;49.386;8.370;2023-04-03T15:06:14;16.30;1.00
31991;DHT22;18508;49.386;8.370;2023-04-03T15:08:45;16.40;1.00
31991;DHT22;18508;49.386;8.370;2023-04-03T15:11:14;15.50;1.00
31991;DHT22;18508;49.386;8.370;2023-04-03T15:13:44;14.10;1.00
31991;DHT22;18508;49.386;8.370;2023-04-03T15:16:16;13.50;1.00
31991;DHT22;18508;49.386;8.370;2023-04-03T15:18:45;12.70;1.00
31991;DHT22;18508;49.386;8.370;2023-04-03T15:21:14;13.10;1.00
31991;DHT22;18508;49.386;8.370;2023-04-03T15:23:43;14.00;1.00
31991;DHT22;18508;49.386;8.370;2023-04-03T15:26:13;14.60;1.00
31991;DHT22;18508;49.386;8.370;2023-04-03T15:28:45;14.90;1.00
31991;DHT22;18508;49.386;8.370;2023-04-03T15:31:13;15.10;1.00
31991;DHT22;18508;49.386;8.370;2023-04-03T15:33:42;15.80;1.00
31991;DHT22;18508;49.386;8.370;2023-04-03T15:36:11;15.60;1.00
31991;DHT22;18508;49.386;8.370;2023-04-03T15:38:58;15.80;1.00
31991;DHT22;18508;49.386;8.370;2023-04-03T15:41:27;16.60;1.00
31991;DHT22;18508;49.386;8.370;2023-04-03T15:43:59;16.80;1.00
31991;DHT22;18508;49.386;8.370;2023-04-03T15:46:26;17.20;1.00
31991;DHT22;18508;49.386;8.370;2023-04-03T15:48:55;16.80;1.00
31991;DHT22;18508;49.386;8.370;2023-04-03T15:51:24;16.30;1.00
31991;DHT22;18508;49.386;8.370;2023-04-03T15:53:52;16.90;1.00
31991;DHT22;18508;49.386;8.370;2023-04-03T15:56:20;16.60;1.00
31991;DHT22;18508;49.386;8.370;2023-04-03T15:58:48;16.40;1.00
31991;DHT22;18508;49.386;8.370;2023-04-03T16:01:17;16.30;1.00
31991;DHT22;18508;49.386;8.370;2023-04-03T16:03:47;16.90;1.00
31991;DHT22;18508;49.386;8.370;2023-04-03T16:06:16;16.10;1.00
31991;DHT22;18508;49.386;8.370;2023-04-03T16:08:46;15.70;1.00
31991;DHT22;18508;49.386;8.370;2023-04-03T16:11:16;15.20;1.00
31991;DHT22;18508;49.386;8.370;2023-04-03T16:13:44;14.60;1.00
31991;DHT22;18508;49.386;8.370;2023-04-03T16:16:13;13.70;1.00
31991;DHT22;18508;49.386;8.370;2023-04-03T16:18:45;13.30;1.00
31991;DHT22;18508;49.386;8.370;2023-04-03T16:21:15;12.80;1.00
31991;DHT22;18508;49.386;8.370;2023-04-03T16:23:43;12.20;1.00
31991;DHT22;18508;49.386;8.370;2023-04-03T16:26:12;11.60;1.00
31991;DHT22;18508;49.386;8.370;2023-04-03T16:28:40;11.70;1.00
31991;DHT22;18508;49.386;8.370;2023-04-03T16:31:08;11.60;1.00
31991;DHT22;18508;49.386;8.370;2023-04-03T16:33:37;11.40;1.00
31991;DHT22;18508;49.386;8.370;2023-04-03T16:36:07;11.20;1.00